sensor_id;sensor_type;location;lat;lon;timestamp;temperature;humidity
20416;DHT22;10367;52.202;5.996;2023-07-28T00:01:29;17.90;99.90
20416;DHT22;10367;52.202;5.996;2023-07-28T00:03:58;17.90;99.90
20416;DHT22;10367;52.202;5.996;2023-07-28T00:06:29;17.90;99.90
20416;DHT22;10367;52.202;5.996;2023-07-28T00:09:02;17.90;99.90
20416;DHT22;10367;52.202;5.996;2023-07-28T00:11:30;17.80;99.90
20416;DHT22;10367;52.202;5.996;2023-07-28T00:14:03;17.90;99.90
20416;DHT22;10367;52.202;5.996;2023-07-28T00:16:32;17.80;99.90
20416;DHT22;10367;52.202;5.996;2023-07-28T00:19:01;17.80;99.90
20416;DHT22;10367;52.202;5.996;2023-07-28T00:21:30;17.80;99.90
20416;DHT22;10367;52.202;5.996;2023-07-28T00:23:59;17.80;99.90
20416;DHT22;10367;52.202;5.996;2023-07-28T00:26:27;17.80;99.90
20416;DHT22;10367;52.202;5.996;2023-07-28T00:28:56;17.80;99.90
20416;DHT22;10367;52.202;5.996;2023-07-28T00:31:28;17.80;99.90
20416;DHT22;10367;52.202;5.996;2023-07-28T00:33:57;17.80;99.90
20416;DHT22;10367;52.202;5.996;2023-07-28T00:36:25;17.80;99.90
20416;DHT22;10367;52.202;5.996;2023-07-28T00:38:54;17.80;99.90
20416;DHT22;10367;52.202;5.996;2023-07-28T00:41:26;17.80;99.90
20416;DHT22;10367;52.202;5.996;2023-07-28T00:43:55;17.80;99.90
20416;DHT22;10367;52.202;5.996;2023-07-28T00:46:24;17.80;99.90
20416;DHT22;10367;52.202;5.996;2023-07-28T00:48:55;17.80;99.90
20416;DHT22;10367;52.202;5.996;2023-07-28T00:51:26;17.80;99.90
20416;DHT22;10367;52.202;5.996;2023-07-28T00:53:55;17.80;99.90
20416;DHT22;10367;52.202;5.996;2023-07-28T00:56:27;17.90;99.90
20416;DHT22;10367;52.202;5.996;2023-07-28T00:58:56;17.90;99.90
20416;DHT22;10367;52.202;5.996;2023-07-28T01:01:24;17.90;99.90
20416;DHT22;10367;52.202;5.996;2023-07-28T01:03:56;17.80;99.90
20416;DHT22;10367;52.202;5.996;2023-07-28T01:06:29;17.80;99.90
20416;DHT22;10367;52.202;5.996;2023-07-28T01:09:03;17.90;99.90
20416;DHT22;10367;52.202;5.996;2023-07-28T01:11:34;17.80;99.90
20416;DHT22;10367;52.202;5.996;2023-07-28T01:14:03;17.80;99.90
20416;DHT22;10367;52.202;5.996;2023-07-28T01:16:32;17.90;99.90
20416;DHT22;10367;52.202;5.996;2023-07-28T01:19:03;17.80;99.90
20416;DHT22;10367;52.202;5.996;2023-07-28T01:21:32;17.90;99.90
20416;DHT22;10367;52.202;5.996;2023-07-28T01:24:07;17.90;99.90
20416;DHT22;10367;52.202;5.996;2023-07-28T01:26:39;17.90;99.90
20416;DHT22;10367;52.202;5.996;2023-07-28T01:29:09;17.90;99.90
20416;DHT22;10367;52.202;5.996;2023-07-28T01:31:38;17.90;99.90
20416;DHT22;10367;52.202;5.996;2023-07-28T01:34:07;17.90;99.90
20416;DHT22;10367;52.202;5.996;2023-07-28T01:36:36;17.90;99.90
20416;DHT22;10367;52.202;5.996;2023-07-28T01:39:07;17.90;99.90
20416;DHT22;10367;52.202;5.996;2023-07-28T01:41:37;17.90;99.90
20416;DHT22;10367;52.202;5.996;2023-07-28T01:44:10;17.90;99.90
20416;DHT22;10367;52.202;5.996;2023-07-28T01:46:39;17.90;99.90
20416;DHT22;10367;52.202;5.996;2023-07-28T01:49:08;17.90;99.90
20416;DHT22;10367;52.202;5.996;2023-07-28T01:51:40;17.90;99.90
20416;DHT22;10367;52.202;5.996;2023-07-28T01:54:23;17.90;99.90
20416;DHT22;10367;52.202;5.996;2023-07-28T01:56:56;17.90;99.90
20416;DHT22;10367;52.202;5.996;2023-07-28T01:59:24;17.90;99.90
20416;DHT22;10367;52.202;5.996;2023-07-28T02:01:55;17.90;99.90
20416;DHT22;10367;52.202;5.996;2023-07-28T02:04:25;17.90;99.90
20416;DHT22;10367;52.202;5.996;2023-07-28T02:06:54;17.90;99.90
20416;DHT22;10367;52.202;5.996;2023-07-28T02:09:23;17.90;99.90
20416;DHT22;10367;52.202;5.996;2023-07-28T02:11:56;17.90;99.90
20416;DHT22;10367;52.202;5.996;2023-07-28T02:14:25;17.90;99.90
20416;DHT22;10367;52.202;5.996;2023-07-28T02:16:55;17.90;99.90
20416;DHT22;10367;52.202;5.996;2023-07-28T02:19:24;17.90;99.90
20416;DHT22;10367;52.202;5.996;2023-07-28T02:21:53;17.80;99.90
20416;DHT22;10367;52.202;5.996;2023-07-28T02:24:22;17.80;99.90
20416;DHT22;10367;52.202;5.996;2023-07-28T02:26:51;17.80;99.90
20416;DHT22;10367;52.202;5.996;2023-07-28T02:29:23;17.90;99.90
20416;DHT22;10367;52.202;5.996;2023-07-28T02:31:52;17.90;99.90
20416;DHT22;10367;52.202;5.996;2023-07-28T02:34:21;17.80;99.90
20416;DHT22;10367;52.202;5.996;2023-07-28T02:36:50;17.90;99.90
20416;DHT22;10367;52.202;5.996;2023-07-28T02:39:18;17.90;99.90
20416;DHT22;10367;52.202;5.996;2023-07-28T02:41:48;17.90;99.90
20416;DHT22;10367;52.202;5.996;2023-07-28T02:44:17;17.90;99.90
20416;DHT22;10367;52.202;5.996;2023-07-28T02:46:47;17.90;99.90
20416;DHT22;10367;52.202;5.996;2023-07-28T02:49:16;17.90;99.90
20416;DHT22;10367;52.202;5.996;2023-07-28T02:51:45;17.90;99.90
20416;DHT22;10367;52.202;5.996;2023-07-28T02:54:14;17.90;99.90
20416;DHT22;10367;52.202;5.996;2023-07-28T02:56:42;17.90;99.90
20416;DHT22;10367;52.202;5.996;2023-07-28T02:59:12;17.90;99.90
20416;DHT22;10367;52.202;5.996;2023-07-28T03:01:42;17.90;99.90
20416;DHT22;10367;52.202;5.996;2023-07-28T03:04:12;17.90;99.90
20416;DHT22;10367;52.202;5.996;2023-07-28T03:06:40;17.90;99.90
20416;DHT22;10367;52.202;5.996;2023-07-28T03:09:09;17.90;99.90
20416;DHT22;10367;52.202;5.996;2023-07-28T03:11:38;17.90;99.90
20416;DHT22;10367;52.202;5.996;2023-07-28T03:14:07;17.90;99.90
20416;DHT22;10367;52.202;5.996;2023-07-28T03:16:36;17.90;99.90
20416;DHT22;10367;52.202;5.996;2023-07-28T03:19:05;17.90;99.90
20416;DHT22;10367;52.202;5.996;2023-07-28T03:21:35;17.90;99.90
20416;DHT22;10367;52.202;5.996;2023-07-28T03:24:06;17.90;99.90
20416;DHT22;10367;52.202;5.996;2023-07-28T03:26:35;17.90;99.90
20416;DHT22;10367;52.202;5.996;2023-07-28T03:29:12;17.90;99.90
20416;DHT22;10367;52.202;5.996;2023-07-28T03:31:41;17.90;99.90
20416;DHT22;10367;52.202;5.996;2023-07-28T03:34:12;17.90;99.90
20416;DHT22;10367;52.202;5.996;2023-07-28T03:36:42;17.90;99.90
20416;DHT22;10367;52.202;5.996;2023-07-28T03:39:11;17.90;99.90
20416;DHT22;10367;52.202;5.996;2023-07-28T03:41:40;17.90;99.90
20416;DHT22;10367;52.202;5.996;2023-07-28T03:44:09;17.90;99.90
20416;DHT22;10367;52.202;5.996;2023-07-28T03:46:38;17.90;99.90
20416;DHT22;10367;52.202;5.996;2023-07-28T03:49:06;17.90;99.90
20416;DHT22;10367;52.202;5.996;2023-07-28T03:51:35;17.90;99.90
20416;DHT22;10367;52.202;5.996;2023-07-28T03:54:05;17.90;99.90
20416;DHT22;10367;52.202;5.996;2023-07-28T03:56:34;17.90;99.90
20416;DHT22;10367;52.202;5.996;2023-07-28T03:59:03;17.90;99.90
20416;DHT22;10367;52.202;5.996;2023-07-28T04:01:33;17.90;99.90
20416;DHT22;10367;52.202;5.996;2023-07-28T04:04:01;17.80;99.90
20416;DHT22;10367;52.202;5.996;2023-07-28T04:06:41;17.90;99.90
20416;DHT22;10367;52.202;5.996;2023-07-28T04:09:13;17.90;99.90
20416;DHT22;10367;52.202;5.996;2023-07-28T04:11:43;17.80;99.90
20416;DHT22;10367;52.202;5.996;2023-07-28T04:14:14;17.90;99.90
20416;DHT22;10367;52.202;5.996;2023-07-28T04:16:43;17.90;99.90
20416;DHT22;10367;52.202;5.996;2023-07-28T04:19:12;17.90;99.90
20416;DHT22;10367;52.202;5.996;2023-07-28T04:21:53;17.90;99.90
20416;DHT22;10367;52.202;5.996;2023-07-28T04:24:24;17.90;99.90
20416;DHT22;10367;52.202;5.996;2023-07-28T04:26:52;17.90;99.90
20416;DHT22;10367;52.202;5.996;2023-07-28T04:29:21;17.90;99.90
20416;DHT22;10367;52.202;5.996;2023-07-28T04:31:50;17.90;99.90
20416;DHT22;10367;52.202;5.996;2023-07-28T04:34:19;17.90;99.90
20416;DHT22;10367;52.202;5.996;2023-07-28T04:36:47;17.90;99.90
20416;DHT22;10367;52.202;5.996;2023-07-28T04:39:16;17.90;99.90
20416;DHT22;10367;52.202;5.996;2023-07-28T04:41:46;17.90;99.90
20416;DHT22;10367;52.202;5.996;2023-07-28T04:44:18;17.90;99.90
20416;DHT22;10367;52.202;5.996;2023-07-28T04:46:48;18.00;99.90
20416;DHT22;10367;52.202;5.996;2023-07-28T04:49:19;18.00;99.90
20416;DHT22;10367;52.202;5.996;2023-07-28T04:51:51;18.00;99.90
20416;DHT22;10367;52.202;5.996;2023-07-28T04:54:20;18.00;99.90
20416;DHT22;10367;52.202;5.996;2023-07-28T04:56:50;18.00;99.90
20416;DHT22;10367;52.202;5.996;2023-07-28T04:59:20;18.10;99.90
20416;DHT22;10367;52.202;5.996;2023-07-28T05:01:54;18.10;99.90
20416;DHT22;10367;52.202;5.996;2023-07-28T05:04:23;18.10;99.90
20416;DHT22;10367;52.202;5.996;2023-07-28T05:06:55;18.20;99.90
20416;DHT22;10367;52.202;5.996;2023-07-28T05:09:36;18.20;99.90
20416;DHT22;10367;52.202;5.996;2023-07-28T05:12:08;18.20;99.90
20416;DHT22;10367;52.202;5.996;2023-07-28T05:14:37;18.20;99.90
20416;DHT22;10367;52.202;5.996;2023-07-28T05:17:07;18.20;99.90
20416;DHT22;10367;52.202;5.996;2023-07-28T05:19:38;18.20;99.90
20416;DHT22;10367;52.202;5.996;2023-07-28T05:22:09;18.20;99.90
20416;DHT22;10367;52.202;5.996;2023-07-28T05:24:37;18.20;99.90
20416;DHT22;10367;52.202;5.996;2023-07-28T05:27:07;18.20;99.90
20416;DHT22;10367;52.202;5.996;2023-07-28T05:29:39;18.20;99.90
20416;DHT22;10367;52.202;5.996;2023-07-28T05:32:08;18.20;99.90
20416;DHT22;10367;52.202;5.996;2023-07-28T05:34:37;18.20;99.90
20416;DHT22;10367;52.202;5.996;2023-07-28T05:37:06;18.20;99.90
20416;DHT22;10367;52.202;5.996;2023-07-28T05:39:35;18.30;99.90
20416;DHT22;10367;52.202;5.996;2023-07-28T05:42:03;18.30;99.90
20416;DHT22;10367;52.202;5.996;2023-07-28T05:44:35;18.30;99.90
20416;DHT22;10367;52.202;5.996;2023-07-28T05:47:04;18.30;99.90
20416;DHT22;10367;52.202;5.996;2023-07-28T05:49:33;18.30;99.90
20416;DHT22;10367;52.202;5.996;2023-07-28T05:52:03;18.30;99.90
20416;DHT22;10367;52.202;5.996;2023-07-28T05:54:32;18.30;99.90
20416;DHT22;10367;52.202;5.996;2023-07-28T05:57:01;18.30;99.90
20416;DHT22;10367;52.202;5.996;2023-07-28T05:59:34;18.30;99.90
20416;DHT22;10367;52.202;5.996;2023-07-28T06:02:06;18.30;99.90
20416;DHT22;10367;52.202;5.996;2023-07-28T06:04:35;18.30;99.90
20416;DHT22;10367;52.202;5.996;2023-07-28T06:07:15;18.30;99.90
20416;DHT22;10367;52.202;5.996;2023-07-28T06:09:47;18.30;99.90
20416;DHT22;10367;52.202;5.996;2023-07-28T06:12:16;18.40;99.90
20416;DHT22;10367;52.202;5.996;2023-07-28T06:14:49;18.50;99.90
20416;DHT22;10367;52.202;5.996;2023-07-28T06:17:18;18.50;99.90
20416;DHT22;10367;52.202;5.996;2023-07-28T06:19:48;18.50;99.90
20416;DHT22;10367;52.202;5.996;2023-07-28T06:22:17;18.50;99.90
20416;DHT22;10367;52.202;5.996;2023-07-28T06:24:48;18.50;99.90
20416;DHT22;10367;52.202;5.996;2023-07-28T06:27:17;18.50;99.90
20416;DHT22;10367;52.202;5.996;2023-07-28T06:29:46;18.60;99.90
20416;DHT22;10367;52.202;5.996;2023-07-28T06:32:16;18.60;99.90
20416;DHT22;10367;52.202;5.996;2023-07-28T06:34:46;18.70;99.90
20416;DHT22;10367;52.202;5.996;2023-07-28T06:37:14;18.70;99.90
20416;DHT22;10367;52.202;5.996;2023-07-28T06:39:43;18.80;99.90
20416;DHT22;10367;52.202;5.996;2023-07-28T06:42:12;18.80;99.90
20416;DHT22;10367;52.202;5.996;2023-07-28T06:44:41;18.80;99.90
20416;DHT22;10367;52.202;5.996;2023-07-28T06:47:10;18.80;99.90
20416;DHT22;10367;52.202;5.996;2023-07-28T06:49:43;18.90;99.90
20416;DHT22;10367;52.202;5.996;2023-07-28T06:52:12;18.90;99.90
20416;DHT22;10367;52.202;5.996;2023-07-28T06:54:41;18.90;99.90
20416;DHT22;10367;52.202;5.996;2023-07-28T06:57:10;18.90;99.90
20416;DHT22;10367;52.202;5.996;2023-07-28T06:59:39;18.90;99.90
20416;DHT22;10367;52.202;5.996;2023-07-28T07:02:08;18.90;99.90
20416;DHT22;10367;52.202;5.996;2023-07-28T07:04:37;19.00;99.90
20416;DHT22;10367;52.202;5.996;2023-07-28T07:07:08;19.00;99.90
20416;DHT22;10367;52.202;5.996;2023-07-28T07:09:37;19.10;99.90
20416;DHT22;10367;52.202;5.996;2023-07-28T07:12:07;19.10;99.90
20416;DHT22;10367;52.202;5.996;2023-07-28T07:14:36;19.00;99.90
20416;DHT22;10367;52.202;5.996;2023-07-28T07:17:06;19.10;99.90
20416;DHT22;10367;52.202;5.996;2023-07-28T07:19:35;19.10;99.90
20416;DHT22;10367;52.202;5.996;2023-07-28T07:22:09;19.10;99.90
20416;DHT22;10367;52.202;5.996;2023-07-28T07:24:38;19.00;99.90
20416;DHT22;10367;52.202;5.996;2023-07-28T07:27:09;19.10;99.90
20416;DHT22;10367;52.202;5.996;2023-07-28T07:29:40;19.10;99.90
20416;DHT22;10367;52.202;5.996;2023-07-28T07:32:13;19.10;99.90
20416;DHT22;10367;52.202;5.996;2023-07-28T07:34:43;19.00;99.90
20416;DHT22;10367;52.202;5.996;2023-07-28T07:37:13;19.10;99.90
20416;DHT22;10367;52.202;5.996;2023-07-28T07:39:44;19.00;99.90
20416;DHT22;10367;52.202;5.996;2023-07-28T07:42:16;19.00;99.90
20416;DHT22;10367;52.202;5.996;2023-07-28T07:44:45;19.10;99.90
20416;DHT22;10367;52.202;5.996;2023-07-28T07:47:14;19.10;99.90
20416;DHT22;10367;52.202;5.996;2023-07-28T07:49:48;19.10;99.90
20416;DHT22;10367;52.202;5.996;2023-07-28T07:52:22;19.10;99.90
20416;DHT22;10367;52.202;5.996;2023-07-28T07:54:55;19.10;99.90
20416;DHT22;10367;52.202;5.996;2023-07-28T07:57:24;19.10;99.90
20416;DHT22;10367;52.202;5.996;2023-07-28T07:59:57;19.10;99.90
20416;DHT22;10367;52.202;5.996;2023-07-28T08:02:26;19.20;99.90
20416;DHT22;10367;52.202;5.996;2023-07-28T08:04:55;19.10;99.90
20416;DHT22;10367;52.202;5.996;2023-07-28T08:07:26;19.20;99.90
20416;DHT22;10367;52.202;5.996;2023-07-28T08:09:55;19.20;99.90
20416;DHT22;10367;52.202;5.996;2023-07-28T08:12:24;19.30;99.90
20416;DHT22;10367;52.202;5.996;2023-07-28T08:14:53;19.40;99.90
20416;DHT22;10367;52.202;5.996;2023-07-28T08:17:23;19.50;99.90
20416;DHT22;10367;52.202;5.996;2023-07-28T08:19:52;19.50;99.90
20416;DHT22;10367;52.202;5.996;2023-07-28T08:22:22;19.50;99.90
20416;DHT22;10367;52.202;5.996;2023-07-28T08:24:52;19.40;99.90
20416;DHT22;10367;52.202;5.996;2023-07-28T08:27:21;19.50;99.90
20416;DHT22;10367;52.202;5.996;2023-07-28T08:29:52;19.50;99.90
20416;DHT22;10367;52.202;5.996;2023-07-28T08:32:24;19.50;99.90
20416;DHT22;10367;52.202;5.996;2023-07-28T08:34:53;19.60;99.90
20416;DHT22;10367;52.202;5.996;2023-07-28T08:37:24;19.60;99.90
20416;DHT22;10367;52.202;5.996;2023-07-28T08:39:54;19.60;99.90
20416;DHT22;10367;52.202;5.996;2023-07-28T08:42:28;19.60;99.90
20416;DHT22;10367;52.202;5.996;2023-07-28T08:44:57;19.50;99.90
20416;DHT22;10367;52.202;5.996;2023-07-28T08:47:28;19.50;99.90
20416;DHT22;10367;52.202;5.996;2023-07-28T08:50:03;19.50;99.90
20416;DHT22;10367;52.202;5.996;2023-07-28T08:52:36;19.50;99.90
20416;DHT22;10367;52.202;5.996;2023-07-28T08:55:07;19.60;99.90
20416;DHT22;10367;52.202;5.996;2023-07-28T08:57:36;19.70;99.90
20416;DHT22;10367;52.202;5.996;2023-07-28T09:00:10;19.90;99.90
20416;DHT22;10367;52.202;5.996;2023-07-28T09:02:43;20.20;99.90
20416;DHT22;10367;52.202;5.996;2023-07-28T09:05:17;20.40;99.90
20416;DHT22;10367;52.202;5.996;2023-07-28T09:07:51;20.60;99.90
20416;DHT22;10367;52.202;5.996;2023-07-28T09:10:48;20.60;99.90
20416;DHT22;10367;52.202;5.996;2023-07-28T09:13:25;20.40;99.90
20416;DHT22;10367;52.202;5.996;2023-07-28T09:15:58;20.40;99.90
20416;DHT22;10367;52.202;5.996;2023-07-28T09:18:27;20.40;99.90
20416;DHT22;10367;52.202;5.996;2023-07-28T09:20:56;20.70;99.90
20416;DHT22;10367;52.202;5.996;2023-07-28T09:23:29;20.70;99.90
20416;DHT22;10367;52.202;5.996;2023-07-28T09:26:02;20.70;99.90
20416;DHT22;10367;52.202;5.996;2023-07-28T09:28:37;20.70;99.90
20416;DHT22;10367;52.202;5.996;2023-07-28T09:31:06;20.70;99.90
20416;DHT22;10367;52.202;5.996;2023-07-28T09:33:39;20.80;99.90
20416;DHT22;10367;52.202;5.996;2023-07-28T09:36:25;21.00;99.90
20416;DHT22;10367;52.202;5.996;2023-07-28T09:38:54;21.20;99.90
20416;DHT22;10367;52.202;5.996;2023-07-28T09:41:29;21.40;99.90
20416;DHT22;10367;52.202;5.996;2023-07-28T09:43:58;21.50;99.90
20416;DHT22;10367;52.202;5.996;2023-07-28T09:46:36;21.70;99.90
20416;DHT22;10367;52.202;5.996;2023-07-28T09:49:12;21.90;99.90
20416;DHT22;10367;52.202;5.996;2023-07-28T09:51:48;22.20;99.90
20416;DHT22;10367;52.202;5.996;2023-07-28T09:54:23;22.60;99.90
20416;DHT22;10367;52.202;5.996;2023-07-28T09:56:59;22.70;99.90
20416;DHT22;10367;52.202;5.996;2023-07-28T09:59:31;22.50;99.90
20416;DHT22;10367;52.202;5.996;2023-07-28T10:02:03;22.50;99.90
20416;DHT22;10367;52.202;5.996;2023-07-28T10:04:38;22.50;99.90
20416;DHT22;10367;52.202;5.996;2023-07-28T10:07:07;22.60;99.90
20416;DHT22;10367;52.202;5.996;2023-07-28T10:09:48;23.00;99.90
20416;DHT22;10367;52.202;5.996;2023-07-28T10:12:27;23.30;99.90
20416;DHT22;10367;52.202;5.996;2023-07-28T10:15:04;23.60;99.90
20416;DHT22;10367;52.202;5.996;2023-07-28T10:17:47;23.50;99.90
20416;DHT22;10367;52.202;5.996;2023-07-28T10:20:30;23.40;99.90
20416;DHT22;10367;52.202;5.996;2023-07-28T10:23:11;23.20;99.90
20416;DHT22;10367;52.202;5.996;2023-07-28T10:25:46;23.20;99.90
20416;DHT22;10367;52.202;5.996;2023-07-28T10:28:40;23.40;99.90
20416;DHT22;10367;52.202;5.996;2023-07-28T10:31:13;23.60;99.90
20416;DHT22;10367;52.202;5.996;2023-07-28T10:33:47;23.50;99.90
20416;DHT22;10367;52.202;5.996;2023-07-28T10:36:33;23.60;99.90
20416;DHT22;10367;52.202;5.996;2023-07-28T10:39:13;23.60;99.90
20416;DHT22;10367;52.202;5.996;2023-07-28T10:42:11;23.60;99.90
20416;DHT22;10367;52.202;5.996;2023-07-28T10:44:43;23.80;99.90
20416;DHT22;10367;52.202;5.996;2023-07-28T10:47:12;24.00;99.90
20416;DHT22;10367;52.202;5.996;2023-07-28T10:50:08;24.10;99.90
20416;DHT22;10367;52.202;5.996;2023-07-28T10:52:42;24.40;99.90
20416;DHT22;10367;52.202;5.996;2023-07-28T10:55:15;24.70;99.90
20416;DHT22;10367;52.202;5.996;2023-07-28T10:57:53;24.90;99.90
20416;DHT22;10367;52.202;5.996;2023-07-28T11:00:30;24.90;99.90
20416;DHT22;10367;52.202;5.996;2023-07-28T11:03:00;25.00;99.90
20416;DHT22;10367;52.202;5.996;2023-07-28T11:05:30;25.10;99.90
20416;DHT22;10367;52.202;5.996;2023-07-28T11:08:00;25.50;99.90
20416;DHT22;10367;52.202;5.996;2023-07-28T11:10:31;25.60;99.90
20416;DHT22;10367;52.202;5.996;2023-07-28T11:13:01;25.90;99.90
20416;DHT22;10367;52.202;5.996;2023-07-28T11:15:52;26.20;99.90
20416;DHT22;10367;52.202;5.996;2023-07-28T11:18:21;26.30;99.90
20416;DHT22;10367;52.202;5.996;2023-07-28T11:20:50;25.80;99.90
20416;DHT22;10367;52.202;5.996;2023-07-28T11:23:22;25.50;99.90
20416;DHT22;10367;52.202;5.996;2023-07-28T11:25:52;25.40;99.90
20416;DHT22;10367;52.202;5.996;2023-07-28T11:28:24;25.40;99.90
20416;DHT22;10367;52.202;5.996;2023-07-28T11:30:56;25.30;99.90
20416;DHT22;10367;52.202;5.996;2023-07-28T11:33:24;24.90;99.90
20416;DHT22;10367;52.202;5.996;2023-07-28T11:35:56;24.20;99.90
20416;DHT22;10367;52.202;5.996;2023-07-28T11:38:26;23.90;99.90
20416;DHT22;10367;52.202;5.996;2023-07-28T11:41:08;23.80;99.90
20416;DHT22;10367;52.202;5.996;2023-07-28T11:43:41;23.70;99.90
20416;DHT22;10367;52.202;5.996;2023-07-28T11:46:36;24.00;99.90
20416;DHT22;10367;52.202;5.996;2023-07-28T11:49:13;24.50;99.90
20416;DHT22;10367;52.202;5.996;2023-07-28T11:51:45;24.70;99.90
20416;DHT22;10367;52.202;5.996;2023-07-28T11:54:17;25.10;99.90
20416;DHT22;10367;52.202;5.996;2023-07-28T11:56:53;25.50;99.90
20416;DHT22;10367;52.202;5.996;2023-07-28T11:59:22;25.50;99.90
20416;DHT22;10367;52.202;5.996;2023-07-28T12:01:54;25.30;99.90
20416;DHT22;10367;52.202;5.996;2023-07-28T12:04:30;25.30;99.90
20416;DHT22;10367;52.202;5.996;2023-07-28T12:07:04;25.20;99.90
20416;DHT22;10367;52.202;5.996;2023-07-28T12:09:50;24.90;99.90
20416;DHT22;10367;52.202;5.996;2023-07-28T12:12:30;24.60;99.90
20416;DHT22;10367;52.202;5.996;2023-07-28T12:15:19;24.80;99.90
20416;DHT22;10367;52.202;5.996;2023-07-28T12:18:07;25.00;99.90
20416;DHT22;10367;52.202;5.996;2023-07-28T12:20:40;25.30;99.90
20416;DHT22;10367;52.202;5.996;2023-07-28T12:23:16;25.50;99.90
20416;DHT22;10367;52.202;5.996;2023-07-28T12:25:49;25.70;99.90
20416;DHT22;10367;52.202;5.996;2023-07-28T12:28:18;26.00;99.90
20416;DHT22;10367;52.202;5.996;2023-07-28T12:30:47;26.30;99.90
20416;DHT22;10367;52.202;5.996;2023-07-28T12:33:20;26.30;99.90
20416;DHT22;10367;52.202;5.996;2023-07-28T12:36:10;26.00;99.90
20416;DHT22;10367;52.202;5.996;2023-07-28T12:38:42;26.20;99.90
20416;DHT22;10367;52.202;5.996;2023-07-28T12:41:11;26.30;99.90
20416;DHT22;10367;52.202;5.996;2023-07-28T12:43:40;26.60;99.90
20416;DHT22;10367;52.202;5.996;2023-07-28T12:46:11;26.80;99.90
20416;DHT22;10367;52.202;5.996;2023-07-28T12:48:42;26.60;99.90
20416;DHT22;10367;52.202;5.996;2023-07-28T12:51:15;26.40;99.90
20416;DHT22;10367;52.202;5.996;2023-07-28T12:53:46;26.60;99.90
20416;DHT22;10367;52.202;5.996;2023-07-28T12:56:15;27.00;99.90
20416;DHT22;10367;52.202;5.996;2023-07-28T12:59:04;27.00;99.90
20416;DHT22;10367;52.202;5.996;2023-07-28T13:01:37;27.20;99.90
20416;DHT22;10367;52.202;5.996;2023-07-28T13:04:07;26.70;99.90
20416;DHT22;10367;52.202;5.996;2023-07-28T13:06:36;26.90;99.90
20416;DHT22;10367;52.202;5.996;2023-07-28T13:09:04;27.10;99.90
20416;DHT22;10367;52.202;5.996;2023-07-28T13:11:36;26.80;99.90
20416;DHT22;10367;52.202;5.996;2023-07-28T13:14:08;26.80;99.90
20416;DHT22;10367;52.202;5.996;2023-07-28T13:16:36;27.00;99.90
20416;DHT22;10367;52.202;5.996;2023-07-28T13:19:07;27.40;99.90
20416;DHT22;10367;52.202;5.996;2023-07-28T13:21:35;28.10;99.90
20416;DHT22;10367;52.202;5.996;2023-07-28T13:24:04;27.80;99.90
20416;DHT22;10367;52.202;5.996;2023-07-28T13:26:33;27.60;99.90
20416;DHT22;10367;52.202;5.996;2023-07-28T13:29:01;26.90;99.90
20416;DHT22;10367;52.202;5.996;2023-07-28T13:31:34;26.70;99.90
20416;DHT22;10367;52.202;5.996;2023-07-28T13:34:03;26.50;99.90
20416;DHT22;10367;52.202;5.996;2023-07-28T13:36:33;26.20;99.90
20416;DHT22;10367;52.202;5.996;2023-07-28T13:39:02;26.40;99.90
20416;DHT22;10367;52.202;5.996;2023-07-28T13:41:30;26.70;99.90
20416;DHT22;10367;52.202;5.996;2023-07-28T13:44:00;27.00;99.90
20416;DHT22;10367;52.202;5.996;2023-07-28T13:46:29;27.10;99.90
20416;DHT22;10367;52.202;5.996;2023-07-28T13:48:58;27.20;99.90
20416;DHT22;10367;52.202;5.996;2023-07-28T13:51:35;27.10;99.90
20416;DHT22;10367;52.202;5.996;2023-07-28T13:54:07;26.60;99.90
20416;DHT22;10367;52.202;5.996;2023-07-28T13:56:39;26.60;99.90
20416;DHT22;10367;52.202;5.996;2023-07-28T13:59:27;26.80;99.90
20416;DHT22;10367;52.202;5.996;2023-07-28T14:01:56;26.70;99.90
20416;DHT22;10367;52.202;5.996;2023-07-28T14:04:25;26.60;99.90
20416;DHT22;10367;52.202;5.996;2023-07-28T14:06:59;26.80;99.90
20416;DHT22;10367;52.202;5.996;2023-07-28T14:09:28;27.50;99.90
20416;DHT22;10367;52.202;5.996;2023-07-28T14:11:57;28.30;99.90
20416;DHT22;10367;52.202;5.996;2023-07-28T14:14:26;28.70;99.90
20416;DHT22;10367;52.202;5.996;2023-07-28T14:16:55;29.00;99.90
20416;DHT22;10367;52.202;5.996;2023-07-28T14:19:24;28.90;99.90
20416;DHT22;10367;52.202;5.996;2023-07-28T14:21:53;29.20;99.90
20416;DHT22;10367;52.202;5.996;2023-07-28T14:24:24;29.50;99.90
20416;DHT22;10367;52.202;5.996;2023-07-28T14:26:52;29.70;99.90
20416;DHT22;10367;52.202;5.996;2023-07-28T14:29:25;29.80;99.90
20416;DHT22;10367;52.202;5.996;2023-07-28T14:31:56;29.80;99.90
20416;DHT22;10367;52.202;5.996;2023-07-28T14:34:25;29.20;99.90
20416;DHT22;10367;52.202;5.996;2023-07-28T14:36:54;28.70;99.90
20416;DHT22;10367;52.202;5.996;2023-07-28T14:39:24;28.20;99.90
20416;DHT22;10367;52.202;5.996;2023-07-28T14:41:54;28.50;99.90
20416;DHT22;10367;52.202;5.996;2023-07-28T14:44:22;28.90;99.90
20416;DHT22;10367;52.202;5.996;2023-07-28T14:46:51;28.40;99.90
20416;DHT22;10367;52.202;5.996;2023-07-28T14:49:21;28.20;99.90
20416;DHT22;10367;52.202;5.996;2023-07-28T14:51:50;28.10;99.90
20416;DHT22;10367;52.202;5.996;2023-07-28T14:54:21;28.30;99.90
20416;DHT22;10367;52.202;5.996;2023-07-28T14:56:51;28.70;99.90
20416;DHT22;10367;52.202;5.996;2023-07-28T14:59:20;28.40;99.90
20416;DHT22;10367;52.202;5.996;2023-07-28T15:01:49;28.00;99.90
20416;DHT22;10367;52.202;5.996;2023-07-28T15:04:20;28.10;99.90
20416;DHT22;10367;52.202;5.996;2023-07-28T15:06:52;28.50;99.90
20416;DHT22;10367;52.202;5.996;2023-07-28T15:09:21;29.10;99.90
20416;DHT22;10367;52.202;5.996;2023-07-28T15:11:52;29.00;99.90
20416;DHT22;10367;52.202;5.996;2023-07-28T15:14:21;28.70;99.90
20416;DHT22;10367;52.202;5.996;2023-07-28T15:16:50;29.00;99.90
20416;DHT22;10367;52.202;5.996;2023-07-28T15:19:18;28.90;99.90
20416;DHT22;10367;52.202;5.996;2023-07-28T15:21:47;28.50;99.90
20416;DHT22;10367;52.202;5.996;2023-07-28T15:24:16;28.30;99.90
20416;DHT22;10367;52.202;5.996;2023-07-28T15:26:47;28.10;99.90
20416;DHT22;10367;52.202;5.996;2023-07-28T15:29:19;28.00;99.90
20416;DHT22;10367;52.202;5.996;2023-07-28T15:31:48;28.00;99.90
20416;DHT22;10367;52.202;5.996;2023-07-28T15:34:17;28.80;99.90
20416;DHT22;10367;52.202;5.996;2023-07-28T15:36:46;29.10;99.90
20416;DHT22;10367;52.202;5.996;2023-07-28T15:39:15;29.00;99.90
20416;DHT22;10367;52.202;5.996;2023-07-28T15:41:44;29.10;99.90
20416;DHT22;10367;52.202;5.996;2023-07-28T15:44:13;29.40;99.90
20416;DHT22;10367;52.202;5.996;2023-07-28T15:46:43;29.70;99.90
20416;DHT22;10367;52.202;5.996;2023-07-28T15:49:12;29.00;99.90
20416;DHT22;10367;52.202;5.996;2023-07-28T15:51:41;29.10;99.90
20416;DHT22;10367;52.202;5.996;2023-07-28T15:54:10;28.90;99.90
20416;DHT22;10367;52.202;5.996;2023-07-28T15:56:38;29.00;99.90